Ottawa, IL (61350)

8:14 PM CDT on August 31, 2016 (GMT -0500)
LaSalle County Government Complex | | Change Station
Active Advisory: Flood Warning

Elev 614 ft 41.37 °N, 88.83 °W | Updated 13 minutes ago

Clear
Clear
69.5 °F
Feels Like 69.5 °F
N
6.0
Wind Variable Wind from NE
Gusts 9.0 mph

Today
High -- | Low -- °F
--% Chance of Precip.
Yesterday
High -- | Low -- °F
Precip. -- in
Pressure 30.09 in
Visibility 10.0 miles
Clouds Clear
Dew Point 60 °F
Humidity 72%
Rainfall 0.00 in
Snow Depth Not available.
6:21 AM 7:29 PM
Waning Crescent, 0% visible
METAR KVYS 010055Z AUTO 03007KT 10SM CLR 21/16 A3009 RMK AO2 T02080159
Pressure 30.09 in
Visibility 10.0 miles
Clouds Clear
Dew Point 60 °F
Humidity 72%
Rainfall 0.00 in
Snow Depth Not available.
6:21 AM 7:29 PM
Waning Crescent, 0% visible
METAR KVYS 010055Z AUTO 03007KT 10SM CLR 21/16 A3009 RMK AO2 T02080159

10-Day Weather Forecast

Almanac

Astronomy

Aug. 31, 2016 Rise Set
Actual Time
Civil Twilight
Nautical Twilight
Astronomical Twilight
Moon
Length of Visible Light
Length of Day
Tomorrow will be .
, % of the Moon is Illuminated

Today's Extremes

State Highs State Lows

Community

WunderPhotos

Upload Photos

1,936,257 photos uploaded!

WunderBlog® & News

Nearby

Air Quality

  Air Quality AQ Index Pollutant
Not available.

Snow Depth

Station Depth Elevation

Earthquake Activity

City Distance Mag. Time & Date
Minimum magnitude displayed is 2.5.

Coastal Water Temperatures

Place Temperature

Stations

Nearby Weather Stations

Station Location Temp. Windchill Dew Point Humidity Wind Precip. Elev Updated Type
                   

Watches & Warnings

Flood Warning
Issued: 11:04 AM CDT Aug. 31, 2016 – National Weather Service

The Flood Warning continues for
the Illinois River at La Salle.
* Until Friday afternoon.
* At 1045 am Wednesday the stage was 22.0 feet.
* Flood stage is 20.0 feet.
* Minor flooding is occurring and minor flooding is forecast.
* Forecast... the river will fall below flood stage by Friday morning.
* Impact... at 22.0 feet... Riverside parking lot at Starved Rock State
Park floods.


Lat... Lon 4137 8896 4135 8929 4126 8930 4128 8896